Time;durP1;ratioP1;P1;durP2;ratioP2;P2;SDS_P1;SDS_P2;PMS_P1;PMS_P2;Temp;Humidity;BMP_temperature;BMP_pressure;BME280_temperature;BME280_humidity;BME280_pressure;Samples;Min_cycle;Max_cycle;Signal;HPM_P1;HPM_P2
2021/10/16 00:00:27;;;;;;;9.20;8.30;;;7.60;99.90;;;;;;6174148;23;20171;-91
2021/10/16 00:02:52;;;;;;;9.60;8.63;;;7.60;99.90;;;;;;6179237;23;20852;-92
2021/10/16 00:05:18;;;;;;;10.60;8.70;;;7.60;99.90;;;;;;6178315;23;20475;-92
2021/10/16 00:07:44;;;;;;;8.30;7.50;;;7.60;99.90;;;;;;6179273;23;20619;-91
2021/10/16 00:10:09;;;;;;;8.97;8.00;;;7.60;99.90;;;;;;6179395;23;20207;-91
2021/10/16 00:12:35;;;;;;;10.13;8.90;;;7.70;99.90;;;;;;6179580;23;20170;-91
2021/10/16 00:15:01;;;;;;;9.40;7.77;;;7.80;99.90;;;;;;6179532;23;20167;-91
2021/10/16 00:17:27;;;;;;;9.63;8.67;;;7.90;99.90;;;;;;6178036;23;20776;-91
2021/10/16 00:19:52;;;;;;;8.30;7.50;;;7.90;99.90;;;;;;6179033;23;20484;-91
2021/10/16 00:22:20;;;;;;;9.07;8.17;;;7.80;99.90;;;;;;6177923;23;20188;-91
2021/10/16 00:24:47;;;;;;;9.20;8.30;;;7.70;99.90;;;;;;6178408;23;20255;-91
2021/10/16 00:27:13;;;;;;;9.20;8.20;;;7.70;99.90;;;;;;6179572;23;20416;-91
2021/10/16 00:29:39;;;;;;;9.57;8.57;;;7.70;99.90;;;;;;6178569;23;20402;-91
2021/10/16 00:32:05;;;;;;;9.23;8.00;;;7.80;99.90;;;;;;6178201;23;20397;-91
2021/10/16 00:34:38;;;;;;;8.40;7.60;;;7.80;99.90;;;;;;6178343;23;20566;-92
2021/10/16 00:37:04;;;;;;;8.50;7.60;;;7.80;99.90;;;;;;6203512;23;20402;-90
2021/10/16 00:39:29;;;;;;;8.57;6.83;;;7.80;99.90;;;;;;6179096;23;20228;-91
2021/10/16 00:41:55;;;;;;;8.60;7.53;;;7.80;99.90;;;;;;6178762;23;20167;-92
2021/10/16 00:44:24;;;;;;;10.17;7.97;;;8.00;99.90;;;;;;6175501;23;20205;-91
2021/10/16 00:46:51;;;;;;;9.03;8.13;;;8.00;99.90;;;;;;6178280;23;20368;-90
2021/10/16 00:49:17;;;;;;;11.93;8.57;;;8.10;99.90;;;;;;6178541;23;20810;-92
2021/10/16 00:51:43;;;;;;;9.37;7.60;;;8.00;99.90;;;;;;6179392;23;20438;-92
2021/10/16 00:54:10;;;;;;;11.67;8.17;;;8.00;99.90;;;;;;6205600;23;20186;-91
2021/10/16 00:56:41;;;;;;;9.00;7.70;;;8.10;99.90;;;;;;6178821;23;20401;-92
2021/10/16 00:59:07;;;;;;;8.43;7.73;;;8.30;99.90;;;;;;6178010;23;20509;-91
2021/10/16 01:01:33;;;;;;;8.80;7.90;;;8.20;99.90;;;;;;6179516;23;21306;-91
2021/10/16 01:04:00;;;;;;;8.13;7.33;;;8.20;99.90;;;;;;6178013;23;20769;-92
2021/10/16 01:06:26;;;;;;;12.13;8.37;;;8.30;99.90;;;;;;6178787;23;20390;-92
2021/10/16 01:08:55;;;;;;;8.73;7.93;;;8.40;99.90;;;;;;6178781;23;20410;-91
2021/10/16 01:11:35;;;;;;;7.80;6.97;;;8.40;99.90;;;;;;6178952;23;20395;-91
2021/10/16 01:14:06;;;;;;;7.73;7.03;;;8.50;99.90;;;;;;6177312;23;20881;-91
2021/10/16 01:16:33;;;;;;;7.90;7.13;;;8.40;99.90;;;;;;6178968;23;20401;-91
2021/10/16 01:18:59;;;;;;;7.97;7.17;;;8.40;99.90;;;;;;6178597;23;20473;-91
2021/10/16 01:21:27;;;;;;;8.03;7.27;;;8.50;99.90;;;;;;6178291;23;20390;-92
2021/10/16 01:23:53;;;;;;;8.00;7.07;;;8.60;99.90;;;;;;6179848;23;20488;-91
2021/10/16 01:26:19;;;;;;;8.80;7.43;;;8.60;99.90;;;;;;6191776;23;20401;-92
2021/10/16 01:28:45;;;;;;;7.83;6.93;;;8.60;99.90;;;;;;6179409;23;20449;-91
2021/10/16 01:31:11;;;;;;;7.70;7.00;;;8.60;99.90;;;;;;6178599;23;20489;-91
2021/10/16 01:33:37;;;;;;;7.47;6.80;;;8.60;99.90;;;;;;6179066;23;20461;-92
2021/10/16 01:36:05;;;;;;;8.30;7.50;;;8.60;99.90;;;;;;6178475;23;20411;-92
2021/10/16 01:38:32;;;;;;;8.50;7.70;;;8.60;99.90;;;;;;6178919;23;20195;-92
2021/10/16 01:40:59;;;;;;;8.00;7.30;;;8.60;99.90;;;;;;6178664;23;20433;-92
2021/10/16 01:43:26;;;;;;;10.00;9.00;;;8.50;99.90;;;;;;6176997;23;20462;-93
2021/10/16 01:45:52;;;;;;;14.57;8.70;;;8.40;99.90;;;;;;6178002;23;20395;-92
2021/10/16 01:48:22;;;;;;;9.20;8.30;;;8.30;99.90;;;;;;6177629;23;20453;-91
2021/10/16 01:50:49;;;;;;;8.60;7.77;;;8.40;99.90;;;;;;6177952;23;20735;-91
2021/10/16 01:53:15;;;;;;;9.10;8.20;;;8.30;99.90;;;;;;6177533;23;20406;-91
2021/10/16 01:55:41;;;;;;;8.07;7.27;;;8.30;99.90;;;;;;6177289;23;20394;-91
2021/10/16 01:58:08;;;;;;;8.73;7.83;;;8.40;99.90;;;;;;6177790;23;20453;-91
2021/10/16 02:00:35;;;;;;;7.40;6.70;;;8.40;99.90;;;;;;6178005;23;20219;-91
2021/10/16 02:03:01;;;;;;;9.47;7.23;;;8.50;99.90;;;;;;6177722;23;20405;-90
2021/10/16 02:05:27;;;;;;;9.53;7.20;;;8.50;99.90;;;;;;6175709;23;20439;-90
2021/10/16 02:07:53;;;;;;;8.13;7.33;;;8.50;99.90;;;;;;6177124;23;20414;-91
2021/10/16 02:10:18;;;;;;;7.20;6.60;;;8.40;99.90;;;;;;6177788;23;20209;-91
2021/10/16 02:12:45;;;;;;;8.27;6.80;;;8.30;99.90;;;;;;6177928;23;20221;-91
2021/10/16 02:15:11;;;;;;;8.23;7.40;;;8.40;99.90;;;;;;6178047;23;20271;-90
2021/10/16 02:17:37;;;;;;;7.00;6.27;;;8.40;99.90;;;;;;6176986;23;20493;-90
2021/10/16 02:20:02;;;;;;;7.53;6.70;;;8.30;99.90;;;;;;6177454;23;20187;-91
2021/10/16 02:22:28;;;;;;;8.30;7.23;;;8.20;99.90;;;;;;6177793;23;20547;-90
2021/10/16 02:24:54;;;;;;;7.83;6.80;;;8.20;99.90;;;;;;6177205;23;20510;-91
2021/10/16 02:27:20;;;;;;;8.10;7.40;;;8.10;99.90;;;;;;6177430;23;20628;-90
2021/10/16 02:29:46;;;;;;;10.63;8.40;;;8.00;99.90;;;;;;6177311;23;20248;-91
2021/10/16 02:32:12;;;;;;;9.47;8.47;;;8.00;99.90;;;;;;6177283;23;20394;-91
2021/10/16 02:34:46;;;;;;;9.63;7.70;;;8.00;99.90;;;;;;6174029;23;20312;-90
2021/10/16 02:37:11;;;;;;;9.20;7.80;;;7.90;99.90;;;;;;6202284;23;20167;-91
2021/10/16 02:39:37;;;;;;;8.57;7.67;;;7.90;99.90;;;;;;6176302;23;20456;-91
2021/10/16 02:42:17;;;;;;;8.87;8.07;;;7.90;99.90;;;;;;6177690;23;20168;-92
2021/10/16 02:44:42;;;;;;;8.53;7.40;;;8.00;99.90;;;;;;6178327;23;20194;-92
2021/10/16 02:47:16;;;;;;;7.70;6.87;;;8.10;99.90;;;;;;6204705;23;20386;-92
2021/10/16 02:49:43;;;;;;;10.03;7.73;;;8.10;99.90;;;;;;6177918;23;20401;-91
2021/10/16 02:52:08;;;;;;;7.57;6.77;;;8.00;99.90;;;;;;6178897;23;20178;-92
2021/10/16 02:54:34;;;;;;;8.10;7.30;;;8.00;99.90;;;;;;6183162;23;20458;-90
2021/10/16 02:57:00;;;;;;;8.10;7.30;;;7.90;99.90;;;;;;6189248;23;20254;-92
2021/10/16 02:59:25;;;;;;;8.10;7.30;;;8.00;99.90;;;;;;6178183;23;20192;-91
2021/10/16 03:01:51;;;;;;;9.00;7.93;;;7.90;99.90;;;;;;6177773;23;20203;-92
2021/10/16 03:04:17;;;;;;;9.67;8.43;;;7.80;99.90;;;;;;6175980;23;20186;-91
2021/10/16 03:06:43;;;;;;;12.33;9.70;;;7.90;99.90;;;;;;6177159;23;20218;-91
2021/10/16 03:09:09;;;;;;;10.90;8.50;;;7.90;99.90;;;;;;6176449;23;20876;-92
2021/10/16 03:11:35;;;;;;;8.80;7.93;;;7.90;99.90;;;;;;6177502;23;20610;-92
2021/10/16 03:14:01;;;;;;;8.67;7.77;;;7.80;99.90;;;;;;6176950;23;20191;-91
2021/10/16 03:16:28;;;;;;;9.50;8.50;;;7.90;99.90;;;;;;6177758;23;20853;-90
2021/10/16 03:18:54;;;;;;;9.70;8.70;;;8.00;99.90;;;;;;6177055;23;20449;-91
2021/10/16 03:21:22;;;;;;;9.87;8.63;;;8.00;99.90;;;;;;6176965;23;20447;-91
2021/10/16 03:23:48;;;;;;;8.90;8.00;;;8.00;99.90;;;;;;6202517;23;20164;-91
2021/10/16 03:26:14;;;;;;;8.27;7.43;;;8.00;99.90;;;;;;6177473;23;20467;-91
2021/10/16 03:28:40;;;;;;;9.60;8.70;;;7.90;99.90;;;;;;6177182;23;20865;-91
2021/10/16 03:31:06;;;;;;;10.10;7.33;;;8.00;99.90;;;;;;6177078;23;20251;-91
2021/10/16 03:36:04;;;;;;;9.10;8.20;;;8.00;99.90;;;;;;6202676;23;20386;-91
2021/10/16 03:38:29;;;;;;;9.03;8.13;;;7.90;99.90;;;;;;6177002;23;20475;-92
2021/10/16 03:40:55;;;;;;;10.80;8.63;;;7.80;99.90;;;;;;6177086;23;20438;-91
2021/10/16 03:43:21;;;;;;;9.10;8.30;;;7.90;99.90;;;;;;6177198;23;20638;-91
2021/10/16 03:45:46;;;;;;;9.57;8.67;;;7.90;99.90;;;;;;6175412;23;20208;-91
2021/10/16 03:48:12;;;;;;;8.50;7.67;;;7.90;99.90;;;;;;6176979;23;20169;-90
2021/10/16 03:50:38;;;;;;;9.60;8.60;;;7.90;99.90;;;;;;6204179;23;20174;-92
2021/10/16 03:53:03;;;;;;;9.23;8.43;;;7.90;99.90;;;;;;6177518;23;20406;-92
2021/10/16 03:55:30;;;;;;;8.87;7.97;;;7.90;99.90;;;;;;6203471;23;20166;-91
2021/10/16 03:57:55;;;;;;;10.30;9.30;;;7.90;99.90;;;;;;6177657;23;20414;-92
2021/10/16 04:00:21;;;;;;;9.83;8.40;;;7.80;99.90;;;;;;6177265;23;20179;-91
2021/10/16 04:02:50;;;;;;;10.03;9.03;;;7.80;99.90;;;;;;6175694;23;20229;-91
2021/10/16 04:05:16;;;;;;;8.90;7.80;;;8.00;99.90;;;;;;6177049;23;20218;-90
2021/10/16 04:07:42;;;;;;;10.03;9.10;;;8.10;99.90;;;;;;6176398;23;20402;-91
2021/10/16 04:10:09;;;;;;;8.70;7.80;;;8.10;99.90;;;;;;6176160;23;20187;-91
2021/10/16 04:12:35;;;;;;;9.20;7.30;;;8.10;99.90;;;;;;6177192;23;20395;-93
2021/10/16 04:15:00;;;;;;;8.50;7.60;;;8.20;99.90;;;;;;6176853;23;21009;-93
2021/10/16 04:17:26;;;;;;;8.57;7.70;;;8.20;99.90;;;;;;6178173;23;20423;-93
2021/10/16 04:19:52;;;;;;;10.00;9.00;;;8.20;99.90;;;;;;6177964;23;20296;-92
2021/10/16 04:22:18;;;;;;;11.23;8.67;;;8.20;99.90;;;;;;6176050;23;20175;-92
2021/10/16 04:24:43;;;;;;;8.27;7.47;;;8.10;99.90;;;;;;6183427;23;20194;-91
2021/10/16 04:27:11;;;;;;;8.50;7.70;;;8.20;99.90;;;;;;6190826;23;20594;-94
2021/10/16 04:29:36;;;;;;;8.63;7.57;;;8.20;99.90;;;;;;6178412;23;20170;-92
2021/10/16 04:32:11;;;;;;;8.37;7.60;;;8.20;99.90;;;;;;6177589;23;21052;-91
2021/10/16 04:34:37;;;;;;;9.27;8.23;;;8.10;99.90;;;;;;6176731;23;20445;-90
2021/10/16 04:37:10;;;;;;;11.97;8.03;;;8.00;99.90;;;;;;6204675;23;20417;-90
2021/10/16 04:39:36;;;;;;;9.40;8.03;;;8.00;99.90;;;;;;6177330;23;20953;-90
2021/10/16 04:42:02;;;;;;;9.30;8.40;;;8.00;99.90;;;;;;6178610;23;20166;-92
2021/10/16 04:44:27;;;;;;;8.50;7.70;;;8.00;99.90;;;;;;6177897;23;20683;-90
2021/10/16 04:46:53;;;;;;;10.00;7.87;;;8.00;99.90;;;;;;6179445;23;20468;-91
2021/10/16 04:49:19;;;;;;;9.07;8.17;;;8.10;99.90;;;;;;6180843;23;20707;-92
2021/10/16 04:51:45;;;;;;;7.60;6.77;;;8.10;99.90;;;;;;6203848;23;20510;-92
2021/10/16 04:54:13;;;;;;;12.00;7.70;;;8.10;99.90;;;;;;6204955;23;20307;-92
2021/10/16 04:56:40;;;;;;;8.17;7.47;;;8.00;99.90;;;;;;6179530;23;20301;-91
2021/10/16 04:59:05;;;;;;;10.90;9.23;;;8.00;99.90;;;;;;6178884;23;20795;-91
2021/10/16 05:01:31;;;;;;;11.77;9.97;;;8.00;99.90;;;;;;6177449;23;20944;-91
2021/10/16 05:03:57;;;;;;;9.50;8.60;;;8.00;99.90;;;;;;6177490;23;20247;-91
2021/10/16 05:06:23;;;;;;;10.23;9.30;;;8.00;99.90;;;;;;6172648;23;20732;-92
2021/10/16 05:08:48;;;;;;;11.03;9.93;;;7.90;99.90;;;;;;6178503;23;20250;-91
2021/10/16 05:11:15;;;;;;;10.33;9.33;;;7.90;99.90;;;;;;6179446;23;20247;-93
2021/10/16 05:13:50;;;;;;;10.97;9.70;;;7.90;99.90;;;;;;6177919;23;20173;-92
2021/10/16 05:16:15;;;;;;;9.40;8.30;;;8.00;99.90;;;;;;6179077;23;20427;-92
2021/10/16 05:18:41;;;;;;;10.77;8.67;;;8.10;99.90;;;;;;6175772;23;20437;-89
2021/10/16 05:21:07;;;;;;;9.63;8.37;;;8.10;99.90;;;;;;6173779;23;20181;-90
2021/10/16 05:23:32;;;;;;;8.67;7.87;;;8.00;99.90;;;;;;6171841;23;20178;-88
2021/10/16 05:25:58;;;;;;;9.80;8.90;;;8.00;99.90;;;;;;6175238;23;20417;-88
2021/10/16 05:28:24;;;;;;;10.03;8.87;;;7.90;99.90;;;;;;6176262;23;20479;-88
2021/10/16 05:30:50;;;;;;;8.30;7.50;;;7.80;99.90;;;;;;6172471;23;20449;-88
2021/10/16 05:33:16;;;;;;;8.50;7.70;;;7.90;99.90;;;;;;6175304;23;20194;-89
2021/10/16 05:35:44;;;;;;;10.73;9.17;;;7.90;99.90;;;;;;6174755;23;20175;-87
2021/10/16 05:38:12;;;;;;;11.63;9.33;;;7.80;99.90;;;;;;6176065;23;20483;-88
2021/10/16 05:40:42;;;;;;;10.33;8.80;;;7.90;99.90;;;;;;6175429;23;20405;-88
2021/10/16 05:43:08;;;;;;;8.80;8.00;;;7.90;99.90;;;;;;6177246;23;20828;-89
2021/10/16 05:45:35;;;;;;;10.50;9.50;;;8.00;99.90;;;;;;6176883;23;20427;-93
2021/10/16 05:48:01;;;;;;;10.60;8.03;;;8.50;99.90;;;;;;6178329;23;20403;-92
2021/10/16 05:50:27;;;;;;;10.00;8.27;;;8.60;99.90;;;;;;6178357;23;20398;-92
2021/10/16 05:52:52;;;;;;;8.97;8.07;;;8.90;99.90;;;;;;6177170;23;20561;-89
2021/10/16 05:55:18;;;;;;;8.23;7.53;;;8.90;99.90;;;;;;6181788;23;20172;-90
2021/10/16 05:57:44;;;;;;;7.70;7.00;;;8.70;99.90;;;;;;6179428;23;20168;-90
2021/10/16 06:00:10;;;;;;;9.27;8.07;;;8.60;99.90;;;;;;6176396;23;20195;-88
2021/10/16 06:02:41;;;;;;;8.73;7.83;;;8.50;99.90;;;;;;6174395;23;20167;-90
2021/10/16 06:05:07;;;;;;;9.50;8.20;;;8.30;99.90;;;;;;6176046;23;20511;-88
2021/10/16 06:07:33;;;;;;;9.00;8.00;;;8.10;99.90;;;;;;6176564;23;20402;-89
2021/10/16 06:09:59;;;;;;;9.30;8.40;;;8.00;99.90;;;;;;6176564;23;20409;-88
2021/10/16 06:12:24;;;;;;;10.53;7.70;;;8.10;99.90;;;;;;6175746;23;20170;-89
2021/10/16 06:14:50;;;;;;;15.93;8.50;;;8.10;99.90;;;;;;6172720;23;20574;-88
2021/10/16 06:17:16;;;;;;;9.17;7.60;;;8.10;99.90;;;;;;6175011;23;20198;-89
2021/10/16 06:19:44;;;;;;;10.43;7.90;;;8.00;99.90;;;;;;6174827;23;20581;-89
2021/10/16 06:22:10;;;;;;;12.60;10.93;;;8.00;99.90;;;;;;6172994;23;20646;-89
2021/10/16 06:24:37;;;;;;;13.77;12.50;;;8.00;99.90;;;;;;6172271;23;20780;-88
2021/10/16 06:27:03;;;;;;;10.70;9.70;;;8.00;99.90;;;;;;6174793;23;20180;-88
2021/10/16 06:29:29;;;;;;;8.87;8.00;;;8.00;99.90;;;;;;6174160;23;20459;-88
2021/10/16 06:31:54;;;;;;;10.83;8.80;;;8.00;99.90;;;;;;6172207;23;20763;-88
2021/10/16 06:34:20;;;;;;;9.73;8.60;;;8.00;99.90;;;;;;6175061;23;20173;-88
2021/10/16 06:36:46;;;;;;;9.37;8.10;;;8.20;99.90;;;;;;6174712;23;20171;-88
2021/10/16 06:39:11;;;;;;;10.90;8.23;;;8.20;99.90;;;;;;6172614;23;20357;-88
2021/10/16 06:41:37;;;;;;;9.80;8.90;;;8.20;99.90;;;;;;6175054;23;20166;-88
2021/10/16 06:44:03;;;;;;;9.50;8.50;;;8.30;99.90;;;;;;6173304;23;20191;-88
2021/10/16 06:46:28;;;;;;;13.30;10.60;;;8.30;99.90;;;;;;6200159;23;20668;-88
2021/10/16 06:48:55;;;;;;;13.03;10.73;;;8.30;99.90;;;;;;6174392;23;20485;-89
2021/10/16 06:51:23;;;;;;;11.37;10.17;;;8.10;99.90;;;;;;6174307;23;20178;-89
2021/10/16 06:53:53;;;;;;;11.40;9.50;;;8.20;99.90;;;;;;6170631;23;20488;-88
2021/10/16 06:56:26;;;;;;;11.03;9.13;;;8.40;99.90;;;;;;6200359;23;20474;-87
2021/10/16 06:58:52;;;;;;;13.13;9.93;;;8.60;99.90;;;;;;6170794;23;20466;-87
2021/10/16 07:01:25;;;;;;;10.23;9.23;;;8.70;99.90;;;;;;6173997;23;20820;-88
2021/10/16 07:03:51;;;;;;;11.73;9.90;;;8.50;99.90;;;;;;6174792;23;20171;-87
2021/10/16 07:06:17;;;;;;;11.37;9.67;;;8.40;99.90;;;;;;6174478;23;20397;-88
2021/10/16 07:08:43;;;;;;;11.50;10.00;;;8.40;99.90;;;;;;6173693;23;20186;-89
2021/10/16 07:11:09;;;;;;;12.27;10.47;;;8.50;99.90;;;;;;6174672;23;20409;-89
2021/10/16 07:13:34;;;;;;;11.07;9.97;;;8.80;99.90;;;;;;6168905;23;20504;-91
2021/10/16 07:16:00;;;;;;;12.57;11.10;;;9.00;99.90;;;;;;6171242;23;20540;-94
2021/10/16 07:18:26;;;;;;;14.20;11.50;;;9.30;99.90;;;;;;6175088;23;20194;-91
2021/10/16 07:20:52;;;;;;;13.27;11.87;;;9.40;99.90;;;;;;6172302;23;20524;-92
2021/10/16 07:23:24;;;;;;;13.13;11.70;;;9.50;99.90;;;;;;6171734;23;20747;-90
2021/10/16 07:25:50;;;;;;;15.80;12.27;;;9.50;99.90;;;;;;6183113;23;20414;-90
2021/10/16 07:28:15;;;;;;;15.23;11.00;;;9.60;99.90;;;;;;6178323;23;20395;-91
2021/10/16 07:30:41;;;;;;;13.57;11.40;;;9.70;99.90;;;;;;6178783;23;20198;-92
2021/10/16 07:33:09;;;;;;;15.30;12.30;;;10.00;99.90;;;;;;6175455;23;20341;-94
2021/10/16 07:35:34;;;;;;;13.53;11.10;;;10.00;99.90;;;;;;6177460;23;20167;-90
2021/10/16 07:38:00;;;;;;;17.97;12.13;;;10.10;99.90;;;;;;6200817;23;20403;-95
2021/10/16 07:40:26;;;;;;;13.10;11.70;;;10.00;99.90;;;;;;6178883;23;20171;-93
2021/10/16 07:43:02;;;;;;;20.30;13.97;;;10.00;99.90;;;;;;6185455;23;20226;-95
2021/10/16 07:45:39;;;;;;;16.80;13.80;;;9.90;99.90;;;;;;6177924;23;20402;-94
2021/10/16 07:48:05;;;;;;;17.83;13.83;;;10.00;99.90;;;;;;6180916;23;20394;-94
2021/10/16 07:50:41;;;;;;;17.53;14.00;;;10.20;99.90;;;;;;6176864;23;20399;-93
2021/10/16 07:53:10;;;;;;;22.80;14.43;;;10.30;99.90;;;;;;6178334;23;20657;-94
2021/10/16 07:55:35;;;;;;;18.43;13.20;;;10.50;99.90;;;;;;6178947;23;20433;-93
2021/10/16 07:58:01;;;;;;;14.93;12.50;;;10.60;99.90;;;;;;6202317;23;20391;-93
2021/10/16 08:00:27;;;;;;;23.10;13.40;;;10.60;99.90;;;;;;6181579;23;20225;-93
2021/10/16 08:02:53;;;;;;;18.13;13.47;;;10.60;99.90;;;;;;6180221;23;20175;-94
2021/10/16 08:05:25;;;;;;;19.30;14.50;;;10.40;99.90;;;;;;6180293;23;20179;-94
2021/10/16 08:08:00;;;;;;;22.33;14.80;;;10.40;99.90;;;;;;6211849;23;20167;-96
2021/10/16 08:10:36;;;;;;;22.80;15.80;;;10.80;99.90;;;;;;6190684;23;20402;-96
2021/10/16 08:13:05;;;;;;;20.93;15.30;;;10.90;99.90;;;;;;6192132;23;20409;-96
2021/10/16 08:15:34;;;;;;;18.93;15.17;;;11.00;99.90;;;;;;6203681;23;20422;-94
2021/10/16 08:18:01;;;;;;;24.33;16.43;;;11.30;99.90;;;;;;6207006;23;20425;-96
2021/10/16 08:20:27;;;;;;;22.03;16.73;;;11.40;99.90;;;;;;6206683;23;20398;-96
2021/10/16 08:22:53;;;;;;;23.37;15.70;;;11.50;99.90;;;;;;6213060;23;20421;-96
2021/10/16 08:25:19;;;;;;;19.00;15.07;;;11.60;99.90;;;;;;6210224;23;20902;-96
2021/10/16 08:27:48;;;;;;;25.43;15.97;;;11.80;99.90;;;;;;6217829;23;20168;-96
2021/10/16 08:30:16;;;;;;;22.90;15.77;;;12.10;99.90;;;;;;6191807;23;20398;-93
2021/10/16 08:32:42;;;;;;;25.73;15.93;;;12.70;99.90;;;;;;6187677;23;20417;-96
2021/10/16 08:35:09;;;;;;;19.30;15.60;;;13.00;99.90;;;;;;6185811;23;20896;-96
2021/10/16 08:37:36;;;;;;;21.60;14.87;;;13.40;99.90;;;;;;6185429;23;20847;-96
2021/10/16 08:40:02;;;;;;;16.50;14.63;;;13.40;99.90;;;;;;6184783;23;20453;-95
2021/10/16 08:42:28;;;;;;;14.43;12.93;;;13.70;99.90;;;;;;6185221;23;20473;-94
2021/10/16 08:44:58;;;;;;;16.57;13.53;;;13.80;99.90;;;;;;6181188;23;20440;-95
2021/10/16 08:47:27;;;;;;;19.83;13.30;;;13.80;99.90;;;;;;6184404;23;20159;-94
2021/10/16 08:49:54;;;;;;;16.93;14.10;;;13.90;99.90;;;;;;6185222;23;20721;-96
2021/10/16 08:52:20;;;;;;;21.30;15.60;;;14.10;99.90;;;;;;6194231;23;20398;-96
2021/10/16 08:54:57;;;;;;;22.27;16.20;;;13.90;99.90;;;;;;6208937;22;20486;-95
2021/10/16 09:07:45;;;;;;;18.83;15.50;;;12.10;99.90;;;;;;6213914;23;20444;-96
2021/10/16 09:10:21;;;;;;;17.60;14.90;;;12.00;99.90;;;;;;6218680;23;20453;-96
2021/10/16 09:12:47;;;;;;;16.73;14.83;;;11.90;99.90;;;;;;6230428;23;20163;-96
2021/10/16 09:15:24;;;;;;;16.67;14.03;;;11.80;99.90;;;;;;6227517;23;20410;-94
2021/10/16 09:18:12;;;;;;;16.90;14.90;;;11.90;99.90;;;;;;6225815;23;20402;-95
2021/10/16 09:20:42;;;;;;;19.37;13.60;;;12.00;99.90;;;;;;6216707;23;20465;-96
2021/10/16 09:23:12;;;;;;;17.90;14.60;;;11.60;99.90;;;;;;6217476;23;20399;-96
2021/10/16 09:25:39;;;;;;;17.17;14.07;;;11.50;99.90;;;;;;6215096;23;20417;-95
2021/10/16 09:28:17;;;;;;;17.97;14.10;;;11.50;99.90;;;;;;6209903;23;20528;-96
2021/10/16 09:30:48;;;;;;;18.60;14.13;;;11.80;99.90;;;;;;6215816;23;20399;-96
2021/10/16 09:33:19;;;;;;;17.77;14.40;;;11.70;99.90;;;;;;6208604;23;20429;-96
2021/10/16 09:35:45;;;;;;;19.57;16.27;;;11.90;99.90;;;;;;6209522;23;20728;-94
2021/10/16 09:38:11;;;;;;;22.83;19.70;;;11.80;99.90;;;;;;6230838;23;20411;-96
2021/10/16 09:58:45;;;;;;;19.50;16.47;;;12.00;99.90;;;;;;6204226;23;20458;-93
2021/10/16 10:01:21;;;;;;;21.10;16.87;;;12.10;99.90;;;;;;6183655;23;20403;-94
2021/10/16 10:03:49;;;;;;;20.80;18.10;;;12.20;99.90;;;;;;6209378;23;20452;-94
2021/10/16 10:06:16;;;;;;;19.80;17.60;;;12.30;99.90;;;;;;6181022;23;20402;-94
2021/10/16 10:08:43;;;;;;;20.10;17.10;;;12.30;99.90;;;;;;6181778;23;20410;-95
2021/10/16 10:11:13;;;;;;;20.57;18.00;;;12.40;99.90;;;;;;6181877;23;20403;-94
2021/10/16 10:13:41;;;;;;;20.90;18.67;;;12.60;99.90;;;;;;6183320;23;21021;-94
2021/10/16 10:16:07;;;;;;;21.13;18.80;;;12.80;99.90;;;;;;6185686;23;20692;-94
2021/10/16 10:21:41;;;;;;;19.97;17.93;;;12.50;99.90;;;;;;6206662;23;20225;-91
2021/10/16 10:24:20;;;;;;;23.90;18.70;;;12.80;99.90;;;;;;6209501;23;20405;-90
2021/10/16 10:26:47;;;;;;;21.20;17.17;;;13.20;99.90;;;;;;6186434;23;20387;-90
2021/10/16 10:29:33;;;;;;;21.27;16.50;;;13.60;99.90;;;;;;6177002;23;20514;-89
2021/10/16 10:32:01;;;;;;;20.77;16.80;;;14.00;99.90;;;;;;6177655;23;20421;-90
2021/10/16 10:34:52;;;;;;;20.27;17.63;;;14.10;99.90;;;;;;6176584;23;20440;-90
2021/10/16 10:37:20;;;;;;;20.37;17.30;;;14.20;99.90;;;;;;6176414;23;20411;-91
2021/10/16 10:39:50;;;;;;;21.33;18.17;;;14.30;99.90;;;;;;6175996;23;20438;-91
2021/10/16 10:42:15;;;;;;;24.20;18.90;;;13.70;99.90;;;;;;6176479;23;20445;-90
2021/10/16 10:44:44;;;;;;;24.30;19.50;;;13.20;99.90;;;;;;6175638;23;20457;-90
2021/10/16 10:47:25;;;;;;;20.53;18.43;;;13.40;99.90;;;;;;6177014;23;20167;-90
2021/10/16 10:50:05;;;;;;;19.63;17.43;;;13.70;99.90;;;;;;6177017;23;20895;-90
2021/10/16 10:53:08;;;;;;;21.47;19.13;;;13.80;99.90;;;;;;6176235;23;20776;-90
2021/10/16 10:55:58;;;;;;;20.37;17.73;;;14.10;99.90;;;;;;6175468;23;20991;-90
2021/10/16 10:58:50;;;;;;;18.70;16.77;;;14.50;99.90;;;;;;6207162;23;20452;-91
2021/10/16 11:01:41;;;;;;;22.03;19.70;;;14.50;99.90;;;;;;6200947;23;20948;-90
2021/10/16 11:04:07;;;;;;;24.03;19.80;;;13.70;99.90;;;;;;6200369;23;20480;-90
2021/10/16 11:06:33;;;;;;;19.10;17.20;;;13.40;99.90;;;;;;6199835;23;20905;-90
2021/10/16 11:09:18;;;;;;;18.20;16.27;;;13.90;99.90;;;;;;6199502;23;20419;-91
2021/10/16 11:11:48;;;;;;;18.10;16.30;;;14.10;99.90;;;;;;6199711;23;20877;-90
2021/10/16 11:14:14;;;;;;;19.47;17.47;;;14.10;99.90;;;;;;6198921;23;20374;-90
2021/10/16 11:17:00;;;;;;;17.67;15.87;;;14.20;99.90;;;;;;6200460;23;20755;-90
2021/10/16 11:19:26;;;;;;;18.03;16.13;;;14.10;99.90;;;;;;6199068;23;20446;-90
2021/10/16 11:21:58;;;;;;;18.47;16.57;;;14.20;99.90;;;;;;6200548;23;20873;-90
2021/10/16 11:24:27;;;;;;;16.50;14.80;;;14.00;99.90;;;;;;6199823;23;20778;-91
2021/10/16 11:26:58;;;;;;;21.90;15.70;;;14.00;99.90;;;;;;6197551;23;20433;-91
2021/10/16 11:29:37;;;;;;;17.93;16.03;;;14.20;99.90;;;;;;6200663;23;20402;-90
2021/10/16 11:32:19;;;;;;;17.97;15.80;;;14.40;99.90;;;;;;6201102;23;20762;-93
2021/10/16 11:35:17;;;;;;;17.13;15.43;;;14.60;99.90;;;;;;6197864;23;20407;-91
2021/10/16 11:37:49;;;;;;;16.43;14.30;;;15.20;99.90;;;;;;6125625;23;20457;-91
2021/10/16 11:40:20;;;;;;;17.73;15.90;;;15.10;99.90;;;;;;6200116;23;20477;-91
2021/10/16 11:43:02;;;;;;;15.70;14.07;;;15.00;99.90;;;;;;6199254;23;20402;-90
2021/10/16 11:45:41;;;;;;;15.80;14.20;;;15.50;99.90;;;;;;6199447;23;20417;-91
2021/10/16 11:48:10;;;;;;;15.83;14.23;;;16.40;99.90;;;;;;6199711;23;20494;-91
2021/10/16 11:50:42;;;;;;;15.03;13.40;;;17.00;99.90;;;;;;6199984;23;20409;-90
2021/10/16 11:53:20;;;;;;;15.33;13.83;;;17.50;99.90;;;;;;6200385;23;20407;-91
2021/10/16 11:55:53;;;;;;;15.20;13.70;;;17.60;99.90;;;;;;6210534;23;20394;-89
2021/10/16 11:58:28;;;;;;;16.27;14.50;;;16.90;99.90;;;;;;6199706;23;20410;-90
2021/10/16 12:01:05;;;;;;;17.20;15.40;;;17.00;99.90;;;;;;6174475;23;20451;-90
2021/10/16 12:03:32;;;;;;;14.60;13.10;;;17.70;99.90;;;;;;6198612;23;20481;-90
2021/10/16 12:06:18;;;;;;;13.97;12.67;;;18.70;98.60;;;;;;6200583;23;20955;-90
2021/10/16 12:08:46;;;;;;;15.17;13.67;;;19.10;97.20;;;;;;6200021;23;20394;-90
2021/10/16 12:11:34;;;;;;;14.20;12.80;;;18.40;97.20;;;;;;6200052;23;20407;-90
2021/10/16 12:16:43;;;;;;;14.83;13.53;;;18.40;99.10;;;;;;6201391;23;20387;-90
2021/10/16 12:19:15;;;;;;;14.07;12.77;;;18.90;97.90;;;;;;6201433;23;20445;-90
2021/10/16 12:21:48;;;;;;;15.13;13.27;;;19.10;97.60;;;;;;6200000;23;20444;-90
2021/10/16 12:24:18;;;;;;;13.73;12.43;;;18.70;98.00;;;;;;6199589;23;20399;-90
2021/10/16 12:26:47;;;;;;;15.70;14.23;;;18.90;96.40;;;;;;6198988;23;20428;-91
2021/10/16 12:29:31;;;;;;;15.60;13.60;;;18.30;97.20;;;;;;6199326;23;20426;-90
2021/10/16 12:32:21;;;;;;;14.23;12.97;;;17.50;98.20;;;;;;6178185;23;20390;-91
2021/10/16 12:35:16;;;;;;;16.13;14.60;;;16.40;99.60;;;;;;6199800;23;20383;-90
2021/10/16 12:38:16;;;;;;;15.00;13.57;;;15.90;99.90;;;;;;6199274;23;21215;-90
2021/10/16 12:40:44;;;;;;;15.13;13.67;;;15.60;99.90;;;;;;6202498;23;20398;-90
2021/10/16 12:43:30;;;;;;;15.13;13.70;;;16.30;99.90;;;;;;6199695;23;21215;-91
2021/10/16 12:46:00;;;;;;;15.13;13.63;;;18.20;98.80;;;;;;6199090;23;20486;-90
2021/10/16 12:48:34;;;;;;;14.67;13.37;;;18.00;97.40;;;;;;6201409;23;20391;-91
2021/10/16 12:51:03;;;;;;;13.77;12.47;;;16.60;98.90;;;;;;6178256;23;20429;-91
2021/10/16 12:53:53;;;;;;;12.23;11.03;;;15.90;99.50;;;;;;6203898;23;20390;-92
2021/10/16 12:56:38;;;;;;;13.03;11.80;;;16.40;99.60;;;;;;6204030;23;20402;-93
2021/10/16 12:59:25;;;;;;;13.83;12.43;;;17.70;98.00;;;;;;6197923;23;20757;-93
2021/10/16 13:01:52;;;;;;;12.73;11.57;;;17.70;96.60;;;;;;6204252;23;20399;-92
2021/10/16 13:04:21;;;;;;;13.63;12.20;;;17.50;97.10;;;;;;6203432;23;20406;-93
2021/10/16 13:06:47;;;;;;;13.30;12.00;;;17.30;98.10;;;;;;6205541;23;20774;-93
2021/10/16 13:09:14;;;;;;;15.53;13.97;;;17.30;98.30;;;;;;6207674;23;20399;-93
2021/10/16 13:11:40;;;;;;;13.97;11.97;;;18.50;97.30;;;;;;6180588;23;20210;-94
2021/10/16 13:14:08;;;;;;;12.40;11.10;;;19.80;96.60;;;;;;6207136;23;20828;-94
2021/10/16 13:16:41;;;;;;;12.20;11.00;;;19.50;94.80;;;;;;6202459;23;20493;-95
2021/10/16 13:19:18;;;;;;;;;;;;;;;;;;;;;
2021/10/16 13:21:53;;;;;;;11.50;10.27;;;19.90;93.80;;;;;;6206863;23;20473;-93
2021/10/16 13:24:20;;;;;;;12.00;10.90;;;20.00;93.90;;;;;;6184722;23;20794;-92
2021/10/16 13:26:47;;;;;;;11.30;10.13;;;19.80;93.40;;;;;;6191898;23;20424;-95
2021/10/16 13:29:17;;;;;;;12.00;10.83;;;20.00;93.80;;;;;;6205416;23;20818;-94